createdAt,value
2022-08-03T00:02:21.870Z,18.39
2022-08-03T00:04:50.122Z,18.40
2022-08-03T00:07:18.362Z,18.40
2022-08-03T00:09:46.962Z,18.40
2022-08-03T00:12:15.373Z,18.41
2022-08-03T00:14:43.913Z,18.41
2022-08-03T00:17:12.933Z,18.42
2022-08-03T00:19:41.397Z,18.43
2022-08-03T00:22:09.748Z,18.44
2022-08-03T00:24:38.816Z,18.43
2022-08-03T00:27:07.139Z,18.43
2022-08-03T00:30:00.198Z,18.44
2022-08-03T00:32:24.761Z,18.44
2022-08-03T00:34:57.528Z,18.44
2022-08-03T00:37:40.723Z,18.45
2022-08-03T00:40:12.559Z,18.45
2022-08-03T00:42:51.537Z,18.45
2022-08-03T00:45:26.324Z,18.46
2022-08-03T00:47:55.440Z,18.47
2022-08-03T00:50:25.725Z,18.48
2022-08-03T00:52:56.868Z,18.50
2022-08-03T00:55:26.061Z,18.52
2022-08-03T00:57:55.468Z,18.54
2022-08-03T01:00:26.880Z,18.58
2022-08-03T01:02:55.423Z,18.60
2022-08-03T01:05:24.290Z,18.62
2022-08-03T01:08:21.399Z,18.64
2022-08-03T01:12:00.310Z,18.65
2022-08-03T01:14:54.629Z,18.67
2022-08-03T01:17:30.724Z,18.72
2022-08-03T01:20:08.115Z,18.76
2022-08-03T01:22:57.820Z,18.81
2022-08-03T01:26:00.266Z,18.85
2022-08-03T01:28:47.313Z,18.89
2022-08-03T01:31:21.848Z,18.95
2022-08-03T01:33:59.795Z,19.00
2022-08-03T01:36:36.542Z,19.03
2022-08-03T01:39:09.674Z,19.06
2022-08-03T01:41:48.427Z,19.09
2022-08-03T01:44:27.698Z,19.11
2022-08-03T01:47:03.642Z,19.12
2022-08-03T01:49:37.503Z,19.13
2022-08-03T01:52:07.775Z,19.13
2022-08-03T01:54:40.912Z,19.13
2022-08-03T01:57:11.085Z,19.15
2022-08-03T01:59:42.160Z,19.16
2022-08-03T02:02:16.076Z,19.17
2022-08-03T02:05:05.971Z,19.16
2022-08-03T02:07:42.351Z,19.16
2022-08-03T02:10:13.402Z,19.18
2022-08-03T02:12:46.035Z,19.17
2022-08-03T02:15:18.324Z,19.16
2022-08-03T02:17:47.505Z,19.16
2022-08-03T02:20:18.342Z,19.14
2022-08-03T02:22:47.239Z,19.14
2022-08-03T02:25:16.539Z,19.13
2022-08-03T02:28:12.465Z,19.11
2022-08-03T02:30:44.279Z,19.11
2022-08-03T02:33:25.163Z,19.12
2022-08-03T02:35:55.472Z,19.12
2022-08-03T02:38:28.390Z,19.14
2022-08-03T02:40:59.396Z,19.14
2022-08-03T02:44:05.376Z,19.17
2022-08-03T02:46:23.337Z,19.18
2022-08-03T02:48:52.732Z,19.17
2022-08-03T02:51:21.627Z,19.16
2022-08-03T02:53:51.372Z,19.21
2022-08-03T02:56:21.793Z,19.26
2022-08-03T02:58:50.558Z,19.30
2022-08-03T03:01:27.639Z,19.31
2022-08-03T03:04:00.108Z,19.33
2022-08-03T03:06:31.106Z,19.34
2022-08-03T03:09:00.550Z,19.35
2022-08-03T03:11:29.848Z,19.35
2022-08-03T03:13:59.934Z,19.35
2022-08-03T03:16:30.501Z,19.35
2022-08-03T03:19:00.211Z,19.36
2022-08-03T03:21:31.487Z,19.37
2022-08-03T03:24:00.452Z,19.39
2022-08-03T03:26:29.086Z,19.40
2022-08-03T03:28:58.231Z,19.39
2022-08-03T03:31:26.755Z,19.38
2022-08-03T03:33:58.242Z,19.37
2022-08-03T03:36:26.767Z,19.37
2022-08-03T03:38:55.270Z,19.38
2022-08-03T03:41:23.914Z,19.38
2022-08-03T03:43:52.629Z,19.39
2022-08-03T03:46:21.102Z,19.38
2022-08-03T03:48:49.541Z,19.39
2022-08-03T03:51:18.874Z,19.41
2022-08-03T03:53:58.634Z,19.45
2022-08-03T03:56:27.928Z,19.50
2022-08-03T03:58:56.694Z,19.55
2022-08-03T04:01:25.944Z,19.60
2022-08-03T04:03:54.293Z,19.62
2022-08-03T04:06:41.680Z,19.66
2022-08-03T04:09:29.807Z,19.70
2022-08-03T04:12:01.901Z,19.73
2022-08-03T04:14:35.398Z,19.76
2022-08-03T04:17:07.233Z,19.77
2022-08-03T04:19:47.720Z,19.81
2022-08-03T04:22:20.069Z,19.89
2022-08-03T04:24:55.856Z,19.98
2022-08-03T04:27:27.634Z,20.09
2022-08-03T04:29:57.892Z,20.17
2022-08-03T04:32:28.861Z,20.27
2022-08-03T04:34:57.907Z,20.38
2022-08-03T04:37:31.908Z,20.50
2022-08-03T04:40:03.588Z,20.63
2022-08-03T04:42:34.151Z,20.75
2022-08-03T04:45:04.247Z,20.87
2022-08-03T04:47:34.015Z,21.01
2022-08-03T04:50:06.285Z,21.15
2022-08-03T04:52:36.839Z,21.28
2022-08-03T04:55:06.287Z,21.28
2022-08-03T04:57:34.566Z,21.13
2022-08-03T05:00:05.196Z,21.02
2022-08-03T05:02:33.892Z,20.97
2022-08-03T05:05:02.408Z,20.93
2022-08-03T05:07:36.175Z,20.88
2022-08-03T05:10:15.787Z,20.85
2022-08-03T05:12:48.263Z,20.82
2022-08-03T05:15:16.765Z,20.81
2022-08-03T05:17:45.066Z,20.81
2022-08-03T05:20:18.102Z,20.81
2022-08-03T05:22:47.491Z,20.81
2022-08-03T05:25:17.381Z,20.81
2022-08-03T05:27:49.443Z,20.82
2022-08-03T05:30:30.590Z,20.84
2022-08-03T05:33:04.190Z,20.87
2022-08-03T05:36:02.727Z,20.90
2022-08-03T05:38:28.874Z,20.94
2022-08-03T05:41:20.251Z,21.00
2022-08-03T05:43:54.007Z,21.07
2022-08-03T05:46:23.160Z,21.10
2022-08-03T05:48:51.528Z,21.13
2022-08-03T05:51:20.009Z,21.13
2022-08-03T05:53:49.102Z,21.12
2022-08-03T05:56:17.456Z,21.12
2022-08-03T05:58:47.738Z,21.12
2022-08-03T06:01:17.634Z,21.11
2022-08-03T06:03:46.794Z,21.13
2022-08-03T06:06:15.786Z,21.15
2022-08-03T06:08:45.592Z,21.17
2022-08-03T06:11:13.976Z,21.19
2022-08-03T06:13:43.186Z,21.23
2022-08-03T06:16:11.754Z,21.28
2022-08-03T06:18:40.651Z,21.34
2022-08-03T06:21:15.274Z,21.41
2022-08-03T06:23:53.467Z,21.50
2022-08-03T06:26:28.446Z,21.61
2022-08-03T06:28:57.197Z,21.73
2022-08-03T06:31:32.872Z,21.85
2022-08-03T06:34:33.639Z,21.99
2022-08-03T06:36:53.133Z,22.12
2022-08-03T06:39:23.724Z,22.25
2022-08-03T06:41:52.985Z,22.37
2022-08-03T06:44:21.391Z,22.47
2022-08-03T06:46:51.428Z,22.58
2022-08-03T06:49:19.863Z,22.67
2022-08-03T06:52:03.112Z,22.76
2022-08-03T06:54:35.869Z,22.87
2022-08-03T06:57:05.272Z,22.98
2022-08-03T07:00:06.160Z,23.09
2022-08-03T07:02:22.844Z,23.20
2022-08-03T07:04:51.202Z,23.31
2022-08-03T07:07:20.784Z,23.43
2022-08-03T07:09:57.336Z,23.54
2022-08-03T07:12:30.567Z,23.64
2022-08-03T07:15:02.685Z,23.74
2022-08-03T07:17:34.008Z,23.83
2022-08-03T07:20:05.538Z,23.92
2022-08-03T07:22:35.138Z,24.01
2022-08-03T07:25:05.141Z,24.08
2022-08-03T07:27:34.286Z,24.16
2022-08-03T07:30:02.732Z,24.23
2022-08-03T07:32:31.937Z,24.31
2022-08-03T07:35:01.390Z,24.39
2022-08-03T07:37:31.106Z,24.47
2022-08-03T07:40:00.876Z,24.54
2022-08-03T07:42:30.022Z,24.61
2022-08-03T07:44:59.381Z,24.67
2022-08-03T07:47:35.076Z,24.73
2022-08-03T07:50:08.715Z,24.80
2022-08-03T07:52:53.363Z,24.87
2022-08-03T07:55:24.242Z,24.95
2022-08-03T07:58:09.536Z,25.03
2022-08-03T08:00:38.885Z,25.13
2022-08-03T08:03:07.663Z,25.24
2022-08-03T08:05:37.476Z,25.33
2022-08-03T08:08:06.161Z,25.45
2022-08-03T08:10:35.360Z,25.55
2022-08-03T08:13:04.966Z,25.63
2022-08-03T08:15:33.399Z,25.69
2022-08-03T08:18:02.624Z,25.73
2022-08-03T08:20:35.801Z,25.78
2022-08-03T08:23:19.996Z,25.83
2022-08-03T08:25:57.271Z,25.87
2022-08-03T08:28:32.883Z,25.89
2022-08-03T08:31:02.965Z,25.90
2022-08-03T08:33:54.309Z,25.92
2022-08-03T08:36:20.820Z,25.94
2022-08-03T08:38:49.271Z,25.96
2022-08-03T08:41:17.882Z,25.99
2022-08-03T08:43:46.181Z,26.02
2022-08-03T08:46:23.463Z,26.04
2022-08-03T08:48:54.463Z,26.05
2022-08-03T08:51:59.133Z,26.06
2022-08-03T08:54:21.700Z,26.07
2022-08-03T08:56:56.354Z,26.09
2022-08-03T08:59:25.587Z,26.13
2022-08-03T09:01:58.385Z,26.16
2022-08-03T09:04:31.861Z,26.19
2022-08-03T09:07:19.195Z,26.22
2022-08-03T09:10:10.762Z,26.29
2022-08-03T09:12:45.721Z,26.35
2022-08-03T09:15:33.526Z,26.41
2022-08-03T09:18:03.913Z,26.50
2022-08-03T09:20:34.776Z,26.60
2022-08-03T09:23:58.989Z,26.69
2022-08-03T09:26:01.891Z,26.81
2022-08-03T09:29:00.569Z,26.89
2022-08-03T09:32:00.037Z,26.97
2022-08-03T09:34:29.095Z,27.05
2022-08-03T09:37:00.856Z,27.13
2022-08-03T09:39:41.934Z,27.22
2022-08-03T09:42:14.678Z,27.33
2022-08-03T09:44:48.538Z,27.46
2022-08-03T09:47:37.189Z,27.59
2022-08-03T09:50:13.806Z,27.74
2022-08-03T09:52:52.191Z,27.83
2022-08-03T09:56:33.434Z,27.95
2022-08-03T09:58:12.905Z,28.10
2022-08-03T10:01:07.838Z,28.24
2022-08-03T10:04:03.124Z,28.41
2022-08-03T10:06:32.257Z,28.53
2022-08-03T10:09:17.087Z,28.63
2022-08-03T10:11:47.148Z,28.75
2022-08-03T10:14:19.595Z,28.85
2022-08-03T10:16:49.654Z,28.95
2022-08-03T10:19:18.013Z,29.08
2022-08-03T10:22:01.744Z,29.25
2022-08-03T10:24:34.732Z,29.47
2022-08-03T10:27:06.284Z,29.68
2022-08-03T10:29:39.996Z,29.87
2022-08-03T10:32:22.012Z,30.06
2022-08-03T10:35:00.282Z,30.25
2022-08-03T10:37:33.447Z,30.34
2022-08-03T10:40:02.995Z,30.34
2022-08-03T10:42:32.057Z,30.30
2022-08-03T10:45:10.062Z,30.30
2022-08-03T10:47:40.417Z,30.37
2022-08-03T10:50:09.762Z,30.49
2022-08-03T10:53:07.450Z,30.61
2022-08-03T10:56:03.720Z,30.76
2022-08-03T10:58:57.895Z,30.92
2022-08-03T11:02:02.937Z,31.10
2022-08-03T11:04:31.387Z,31.35
2022-08-03T11:07:24.373Z,31.56
2022-08-03T11:09:55.033Z,31.83
2022-08-03T11:12:29.905Z,32.07
2022-08-03T11:15:06.689Z,32.32
2022-08-03T11:17:45.896Z,32.56
2022-08-03T11:20:15.690Z,32.83
2022-08-03T11:22:51.606Z,33.05
2022-08-03T11:25:53.645Z,33.25
2022-08-03T11:28:28.863Z,33.43
2022-08-03T11:30:57.224Z,33.63
2022-08-03T11:33:32.372Z,33.80
2022-08-03T11:36:03.436Z,33.99
2022-08-03T11:38:31.882Z,34.19
2022-08-03T11:41:02.834Z,34.37
2022-08-03T11:43:31.781Z,34.54
2022-08-03T11:46:28.159Z,34.67
2022-08-03T11:49:09.748Z,34.77
2022-08-03T11:51:40.468Z,34.81
2022-08-03T11:54:09.233Z,34.82
2022-08-03T11:56:46.627Z,34.87
2022-08-03T11:59:20.383Z,34.85
2022-08-03T12:01:50.775Z,34.89
2022-08-03T12:04:19.537Z,34.92
2022-08-03T12:07:03.782Z,34.89
2022-08-03T12:09:34.932Z,34.90
2022-08-03T12:12:03.535Z,34.78
2022-08-03T12:14:49.328Z,34.69
2022-08-03T12:17:21.207Z,34.77
2022-08-03T12:19:49.773Z,34.91
2022-08-03T12:22:32.028Z,35.11
2022-08-03T12:25:00.637Z,35.35
2022-08-03T12:27:31.301Z,35.53
2022-08-03T12:30:01.931Z,35.73
2022-08-03T12:32:31.511Z,35.94
2022-08-03T12:35:01.868Z,36.14
2022-08-03T12:37:30.697Z,36.36
2022-08-03T12:40:09.375Z,36.50
2022-08-03T12:42:40.106Z,36.64
2022-08-03T12:45:22.583Z,36.76
2022-08-03T12:47:58.912Z,36.93
2022-08-03T12:50:31.873Z,37.14
2022-08-03T12:53:05.636Z,37.34
2022-08-03T12:55:57.386Z,37.52
2022-08-03T12:58:34.334Z,37.64
2022-08-03T13:01:10.061Z,37.75
2022-08-03T13:03:50.520Z,37.87
2022-08-03T13:06:25.713Z,37.99
2022-08-03T13:09:05.954Z,38.11
2022-08-03T13:11:55.580Z,38.17
2022-08-03T13:14:23.633Z,38.18
2022-08-03T13:16:52.284Z,38.22
2022-08-03T13:19:20.670Z,38.32
2022-08-03T13:22:02.139Z,38.37
2022-08-03T13:24:33.876Z,38.47
2022-08-03T13:28:01.054Z,38.59
2022-08-03T13:29:53.191Z,38.73
2022-08-03T13:32:22.696Z,38.81
2022-08-03T13:34:51.178Z,38.90
2022-08-03T13:37:19.758Z,38.98
2022-08-03T13:39:59.573Z,38.93
2022-08-03T13:42:30.035Z,38.71
2022-08-03T13:44:59.906Z,38.63
2022-08-03T13:47:28.349Z,38.47
2022-08-03T13:50:01.510Z,38.39
2022-08-03T13:52:35.658Z,38.41
2022-08-03T13:55:06.669Z,38.46
2022-08-03T13:58:05.336Z,38.53
2022-08-03T14:00:29.209Z,38.63
2022-08-03T14:03:09.538Z,38.70
2022-08-03T14:05:43.476Z,38.74
2022-08-03T14:08:12.700Z,38.83
2022-08-03T14:10:44.096Z,38.92
2022-08-03T14:13:16.812Z,39.05
2022-08-03T14:15:50.120Z,39.20
2022-08-03T14:18:28.673Z,39.29
2022-08-03T14:21:07.410Z,39.35
2022-08-03T14:23:38.200Z,39.21
2022-08-03T14:26:08.193Z,38.99
2022-08-03T14:28:36.698Z,38.91
2022-08-03T14:31:08.552Z,38.92
2022-08-03T14:33:54.183Z,38.98
2022-08-03T14:36:23.030Z,39.10
2022-08-03T14:38:51.554Z,39.19
2022-08-03T14:41:20.467Z,39.19
2022-08-03T14:44:01.746Z,39.20
2022-08-03T14:46:32.116Z,39.16
2022-08-03T14:50:28.836Z,39.07
2022-08-03T14:51:51.364Z,39.07
2022-08-03T14:54:23.363Z,39.12
2022-08-03T14:56:52.179Z,39.16
2022-08-03T14:59:20.755Z,39.18
2022-08-03T15:02:05.135Z,39.20
2022-08-03T15:04:36.535Z,39.21
2022-08-03T15:07:05.341Z,39.22
2022-08-03T15:09:34.194Z,39.24
2022-08-03T15:12:02.590Z,39.27
2022-08-03T15:14:33.144Z,39.32
2022-08-03T15:17:02.033Z,39.39
2022-08-03T15:20:03.461Z,39.44
2022-08-03T15:22:20.703Z,39.38
2022-08-03T15:24:54.309Z,39.28
2022-08-03T15:27:23.374Z,39.14
2022-08-03T15:30:09.460Z,39.01
2022-08-03T15:32:39.212Z,38.95
2022-08-03T15:35:07.914Z,38.93
2022-08-03T15:37:36.448Z,38.92
2022-08-03T15:40:05.954Z,38.93
2022-08-03T15:42:34.591Z,38.92
2022-08-03T15:45:02.813Z,38.94
2022-08-03T15:47:31.702Z,38.95
2022-08-03T15:50:00.111Z,38.94
2022-08-03T15:52:28.416Z,38.89
2022-08-03T15:54:57.352Z,38.84
2022-08-03T15:57:25.884Z,38.82
2022-08-03T15:59:54.236Z,38.77
2022-08-03T16:02:22.897Z,38.64
2022-08-03T16:04:52.402Z,38.50
2022-08-03T16:07:40.805Z,38.39
2022-08-03T16:10:30.720Z,38.20
2022-08-03T16:13:00.498Z,37.93
2022-08-03T16:15:29.161Z,37.62
2022-08-03T16:17:57.437Z,37.38
2022-08-03T16:20:33.922Z,37.22
2022-08-03T16:23:10.503Z,37.07
2022-08-03T16:25:49.394Z,36.94
2022-08-03T16:28:18.460Z,36.78
2022-08-03T16:30:47.580Z,36.61
2022-08-03T16:33:17.814Z,36.45
2022-08-03T16:35:49.736Z,36.27
2022-08-03T16:38:19.346Z,36.14
2022-08-03T16:40:52.375Z,36.02
2022-08-03T16:43:22.640Z,35.91
2022-08-03T16:45:51.973Z,35.76
2022-08-03T16:48:20.714Z,35.62
2022-08-03T16:50:49.248Z,35.54
2022-08-03T16:53:33.014Z,35.48
2022-08-03T16:56:05.553Z,35.38
2022-08-03T16:58:41.737Z,35.25
2022-08-03T17:01:24.037Z,35.16
2022-08-03T17:04:03.162Z,35.10
2022-08-03T17:06:44.961Z,35.01
2022-08-03T17:09:21.261Z,34.94
2022-08-03T17:11:51.177Z,34.90
2022-08-03T17:14:29.339Z,34.84
2022-08-03T17:17:01.799Z,34.75
2022-08-03T17:19:36.705Z,34.64
2022-08-03T17:22:15.804Z,34.51
2022-08-03T17:24:51.429Z,34.32
2022-08-03T17:28:49.398Z,34.14
2022-08-03T17:30:16.020Z,33.92
2022-08-03T17:32:57.100Z,33.73
2022-08-03T17:35:36.881Z,33.56
2022-08-03T17:38:15.749Z,33.36
2022-08-03T17:40:48.292Z,33.18
2022-08-03T17:44:14.280Z,33.00
2022-08-03T17:46:10.895Z,32.76
2022-08-03T17:48:41.467Z,32.54
2022-08-03T17:51:50.040Z,32.28
2022-08-03T17:54:30.783Z,31.95
2022-08-03T17:58:02.154Z,31.69
2022-08-03T18:00:43.559Z,31.33
2022-08-03T18:03:18.678Z,31.02
2022-08-03T18:06:11.533Z,30.71
2022-08-03T18:08:50.577Z,30.40
2022-08-03T18:11:23.488Z,30.11
2022-08-03T18:14:17.011Z,29.82
2022-08-03T18:17:06.588Z,29.51
2022-08-03T18:22:30.634Z,28.94
2022-08-03T18:25:00.423Z,28.70
2022-08-03T18:27:45.977Z,28.48
2022-08-03T18:30:16.226Z,28.26
2022-08-03T18:33:01.097Z,28.06
2022-08-03T18:35:53.120Z,27.83
2022-08-03T18:38:24.283Z,27.61
2022-08-03T18:40:52.954Z,27.40
2022-08-03T18:43:22.575Z,27.22
2022-08-03T18:46:29.964Z,27.02
2022-08-03T18:49:14.406Z,26.83
2022-08-03T18:51:48.689Z,26.63
2022-08-03T18:54:45.566Z,26.46
2022-08-03T18:57:30.214Z,26.27
2022-08-03T19:00:14.091Z,26.12
2022-08-03T19:02:58.904Z,25.97
2022-08-03T19:05:57.748Z,25.83
2022-08-03T19:08:31.252Z,25.69
2022-08-03T19:11:06.054Z,25.56
2022-08-03T19:13:50.312Z,25.43
2022-08-03T19:16:30.890Z,25.30
2022-08-03T19:19:04.473Z,25.18
2022-08-03T19:21:36.984Z,25.08
2022-08-03T19:24:10.160Z,25.00
2022-08-03T19:26:39.868Z,24.92
2022-08-03T19:29:14.728Z,24.86
2022-08-03T19:31:58.762Z,24.79
2022-08-03T19:34:32.953Z,24.72
2022-08-03T19:37:02.562Z,24.68
2022-08-03T19:39:31.702Z,24.62
2022-08-03T19:42:18.451Z,24.55
2022-08-03T19:44:55.538Z,24.48
2022-08-03T19:47:32.107Z,24.40
2022-08-03T19:50:13.840Z,24.33
2022-08-03T19:52:47.564Z,24.26
2022-08-03T19:55:17.665Z,24.19
2022-08-03T19:57:53.177Z,24.11
2022-08-03T20:00:30.577Z,24.03
2022-08-03T20:03:21.729Z,23.94
2022-08-03T20:05:52.267Z,23.85
2022-08-03T20:08:23.445Z,23.79
2022-08-03T20:10:52.269Z,23.71
2022-08-03T20:13:20.937Z,23.64
2022-08-03T20:15:53.323Z,23.55
2022-08-03T20:18:22.266Z,23.52
2022-08-03T20:20:54.496Z,23.71
2022-08-03T20:23:27.129Z,23.93
2022-08-03T20:26:09.381Z,24.09
2022-08-03T20:28:50.048Z,24.19
2022-08-03T20:31:25.185Z,24.27
2022-08-03T20:34:09.386Z,24.32
2022-08-03T20:36:39.000Z,24.35
2022-08-03T20:39:07.903Z,24.40
2022-08-03T20:41:37.695Z,24.44
2022-08-03T20:44:06.483Z,24.45
2022-08-03T20:46:46.718Z,24.46
2022-08-03T20:49:24.144Z,24.41
2022-08-03T20:51:53.631Z,24.16
2022-08-03T20:54:29.838Z,23.89
2022-08-03T20:57:03.639Z,23.66
2022-08-03T20:59:50.308Z,23.47
2022-08-03T21:02:30.054Z,23.28
2022-08-03T21:05:03.443Z,23.13
2022-08-03T21:08:05.246Z,23.04
2022-08-03T21:10:40.732Z,23.21
2022-08-03T21:13:03.991Z,29.22
2022-08-03T21:16:02.900Z,23.51
2022-08-03T21:18:52.751Z,23.60
2022-08-03T21:21:23.807Z,23.66
2022-08-03T21:23:54.363Z,23.71
2022-08-03T21:26:26.085Z,23.70
2022-08-03T21:28:56.954Z,23.47
2022-08-03T21:31:26.751Z,23.22
2022-08-03T21:34:01.733Z,23.03
2022-08-03T21:36:33.296Z,22.88
2022-08-03T21:39:04.665Z,22.78
2022-08-03T21:41:33.197Z,22.69
2022-08-03T21:44:02.928Z,22.64
2022-08-03T21:46:37.007Z,22.58
2022-08-03T21:50:05.661Z,22.53
2022-08-03T21:52:05.664Z,22.49
2022-08-03T21:54:41.059Z,22.47
2022-08-03T21:57:18.371Z,22.45
2022-08-03T21:59:57.202Z,22.44
2022-08-03T22:02:32.163Z,22.43
2022-08-03T22:05:05.142Z,22.43
2022-08-03T22:07:37.021Z,22.44
2022-08-03T22:10:06.900Z,22.46
2022-08-03T22:12:35.991Z,22.48
2022-08-03T22:15:08.234Z,22.52
2022-08-03T22:17:53.611Z,22.54
2022-08-03T22:20:23.174Z,22.57
2022-08-03T22:22:57.143Z,22.60
2022-08-03T22:25:31.465Z,22.63
2022-08-03T22:28:07.635Z,22.68
2022-08-03T22:30:36.755Z,22.71
2022-08-03T22:33:11.665Z,22.74
2022-08-03T22:35:48.013Z,22.77
2022-08-03T22:38:18.546Z,22.80
2022-08-03T22:40:50.124Z,22.81
2022-08-03T22:43:25.315Z,22.83
2022-08-03T22:46:10.138Z,22.85
2022-08-03T22:48:41.767Z,22.86
2022-08-03T22:51:11.254Z,22.87
2022-08-03T22:53:40.947Z,22.87
2022-08-03T22:56:09.851Z,22.87
2022-08-03T22:58:38.171Z,22.87
2022-08-03T23:01:09.784Z,22.87
2022-08-03T23:03:59.632Z,22.86
2022-08-03T23:06:35.837Z,22.87
2022-08-03T23:09:12.685Z,22.88
2022-08-03T23:11:46.092Z,22.88
2022-08-03T23:14:18.608Z,22.89
2022-08-03T23:16:48.799Z,22.91
2022-08-03T23:19:25.934Z,22.91
2022-08-03T23:22:02.607Z,22.91
2022-08-03T23:24:36.434Z,22.91
2022-08-03T23:27:06.316Z,22.91
2022-08-03T23:29:39.554Z,22.90
2022-08-03T23:32:08.439Z,22.89
2022-08-03T23:34:58.727Z,22.89
2022-08-03T23:37:27.427Z,22.87
2022-08-03T23:39:57.193Z,22.85
2022-08-03T23:42:26.470Z,22.84
2022-08-03T23:44:56.842Z,22.83
2022-08-03T23:47:46.413Z,22.82
2022-08-03T23:50:17.807Z,22.81
2022-08-03T23:53:06.194Z,22.81
2022-08-03T23:55:46.106Z,22.80
2022-08-03T23:58:47.432Z,22.78
